createdAt,value
2017-07-06T00:00:34.737Z,1014.19
2017-07-06T00:01:45.005Z,1014.19
2017-07-06T00:02:55.307Z,1014.18
2017-07-06T00:04:05.255Z,1014.15
2017-07-06T00:05:15.132Z,1014.16
2017-07-06T00:06:25.103Z,1014.19
2017-07-06T00:07:35.373Z,1014.18
2017-07-06T00:08:45.631Z,1014.17
2017-07-06T00:09:55.902Z,1014.18
2017-07-06T00:11:06.480Z,1014.2
2017-07-06T00:12:16.425Z,1014.2
2017-07-06T00:13:26.375Z,1014.18
2017-07-06T00:14:36.642Z,1014.16
2017-07-06T00:15:46.918Z,1014.15
2017-07-06T00:16:57.452Z,1014.17
2017-07-06T00:18:07.405Z,1014.19
2017-07-06T00:19:17.684Z,1014.15
2017-07-06T00:20:27.638Z,1014.15
2017-07-06T00:21:37.902Z,1014.13
2017-07-06T00:22:48.446Z,1014.14
2017-07-06T00:23:58.074Z,1014.15
2017-07-06T00:25:08.010Z,1014.15
2017-07-06T00:26:17.647Z,1014.16
2017-07-06T00:27:27.919Z,1014.2
2017-07-06T00:28:38.507Z,1014.18
2017-07-06T00:29:48.469Z,1014.18
2017-07-06T00:30:58.737Z,1014.19
2017-07-06T00:32:08.683Z,1014.17
2017-07-06T00:33:18.311Z,1014.2
2017-07-06T00:34:28.515Z,1014.22
2017-07-06T00:35:38.470Z,1014.17
2017-07-06T00:36:48.404Z,1014.18
2017-07-06T00:37:58.367Z,1014.15
2017-07-06T00:39:08.325Z,1014.15
2017-07-06T00:40:18.531Z,1014.1
2017-07-06T00:41:28.483Z,1014.09
2017-07-06T00:42:38.950Z,1014.11
2017-07-06T00:43:49.209Z,1014.11
2017-07-06T00:44:58.849Z,1014.11
2017-07-06T00:46:09.041Z,1014.13
2017-07-06T00:47:18.360Z,1014.15
2017-07-06T00:48:28.631Z,1014.17
2017-07-06T00:49:38.889Z,1014.19
2017-07-06T00:50:48.843Z,1014.18
2017-07-06T00:51:59.051Z,1014.22
2017-07-06T00:53:08.669Z,1014.17
2017-07-06T00:54:18.622Z,1014.18
2017-07-06T00:55:28.875Z,1014.18
2017-07-06T00:56:39.149Z,1014.13
2017-07-06T00:57:49.668Z,1014.15
2017-07-06T00:58:59.945Z,1014.16
2017-07-06T01:00:09.878Z,1014.18
2017-07-06T01:01:19.850Z,1014.21
2017-07-06T01:02:29.799Z,1014.21
2017-07-06T01:03:39.988Z,1014.19
2017-07-06T01:04:50.251Z,1014.15
2017-07-06T01:06:00.209Z,1014.16
2017-07-06T01:07:10.488Z,1014.16
2017-07-06T01:08:20.438Z,1014.12
2017-07-06T01:09:30.641Z,1014.1
2017-07-06T01:10:40.910Z,1014.05
2017-07-06T01:11:51.178Z,1014.05
2017-07-06T01:13:01.109Z,1014.07
2017-07-06T01:14:11.366Z,1014.07
2017-07-06T01:15:21.880Z,1014.07
2017-07-06T01:16:31.824Z,1014.04
2017-07-06T01:17:41.792Z,1014.05
2017-07-06T01:18:52.053Z,1014.02
2017-07-06T01:20:01.373Z,1014.02
2017-07-06T01:21:11.889Z,1014.03
2017-07-06T01:22:21.828Z,1014
2017-07-06T01:23:32.102Z,1014.04
2017-07-06T01:24:42.374Z,1014
2017-07-06T01:25:52.638Z,1014.02
2017-07-06T01:27:02.531Z,1014.02
2017-07-06T01:28:12.800Z,1014.04
2017-07-06T01:29:22.751Z,1014.02
2017-07-06T01:30:33.001Z,1014.03
2017-07-06T01:31:42.970Z,1013.99
2017-07-06T01:32:53.180Z,1014.01
2017-07-06T01:34:03.126Z,1014
2017-07-06T01:35:13.381Z,1014.03
2017-07-06T01:36:23.347Z,1014
2017-07-06T01:37:33.597Z,1014.04
2017-07-06T01:38:44.121Z,1014.05
2017-07-06T01:39:54.392Z,1014.07
2017-07-06T01:41:04.344Z,1014.05
2017-07-06T01:42:13.650Z,1014.06
2017-07-06T01:43:23.914Z,1014.05
2017-07-06T01:44:34.108Z,1014.06
2017-07-06T01:45:44.382Z,1014.05
2017-07-06T01:46:54.655Z,1014.01
2017-07-06T01:48:04.612Z,1014.06
2017-07-06T01:49:14.889Z,1014.05
2017-07-06T01:50:25.401Z,1014.04
2017-07-06T01:51:35.032Z,1014.09
2017-07-06T01:52:45.293Z,1014.08
2017-07-06T01:53:55.232Z,1014.08
2017-07-06T01:55:04.868Z,1014.07
2017-07-06T01:56:14.759Z,1014.1
2017-07-06T01:57:25.025Z,1014.08
2017-07-06T01:58:34.975Z,1014.12
2017-07-06T01:59:44.933Z,1014.09
2017-07-06T02:00:55.194Z,1014.13
2017-07-06T02:02:05.074Z,1014.14
2017-07-06T02:03:15.018Z,1014.14
2017-07-06T02:04:25.286Z,1014.13
2017-07-06T02:05:35.230Z,1014.19
2017-07-06T02:06:45.494Z,1014.18
2017-07-06T02:07:56.019Z,1014.23
2017-07-06T02:09:06.275Z,1014.2
2017-07-06T02:10:16.535Z,1014.22
2017-07-06T02:11:26.479Z,1014.19
2017-07-06T02:12:36.740Z,1014.22
2017-07-06T02:13:47.260Z,1014.21
2017-07-06T02:14:56.899Z,1014.18
2017-07-06T02:16:06.527Z,1014.19
2017-07-06T02:17:16.156Z,1014.23
2017-07-06T02:18:26.142Z,1014.21
2017-07-06T02:19:36.668Z,1014.24
2017-07-06T02:20:46.995Z,1014.23
2017-07-06T02:21:57.269Z,1014.21
2017-07-06T02:23:07.521Z,1014.26
2017-07-06T02:24:17.786Z,1014.33
2017-07-06T02:25:27.989Z,1014.3
2017-07-06T02:26:37.952Z,1014.3
2017-07-06T02:27:48.209Z,1014.34
2017-07-06T02:28:58.148Z,1014.32
2017-07-06T02:30:08.416Z,1014.3
2017-07-06T02:31:18.618Z,1014.35
2017-07-06T02:32:28.562Z,1014.32
2017-07-06T02:33:38.199Z,1014.31
2017-07-06T02:34:47.834Z,1014.33
2017-07-06T02:35:57.784Z,1014.32
2017-07-06T02:37:08.340Z,1014.33
2017-07-06T02:38:18.603Z,1014.36
2017-07-06T02:39:27.939Z,1014.33
2017-07-06T02:40:37.878Z,1014.35
2017-07-06T02:41:48.140Z,1014.35
2017-07-06T02:42:58.326Z,1014.35
2017-07-06T02:44:08.575Z,1014.36
2017-07-06T02:45:18.868Z,1014.35
2017-07-06T02:46:28.816Z,1014.36
2017-07-06T02:47:39.088Z,1014.39
2017-07-06T02:48:48.964Z,1014.34
2017-07-06T02:49:59.232Z,1014.34
2017-07-06T02:51:09.184Z,1014.32
2017-07-06T02:52:19.521Z,1014.28
2017-07-06T02:53:29.457Z,1014.33
2017-07-06T02:54:39.650Z,1014.35
2017-07-06T02:55:49.903Z,1014.29
2017-07-06T02:57:00.167Z,1014.32
2017-07-06T02:58:10.426Z,1014.38
2017-07-06T02:59:20.385Z,1014.35
2017-07-06T03:00:30.572Z,1014.39
2017-07-06T03:01:40.864Z,1014.34
2017-07-06T03:02:51.171Z,1014.36
2017-07-06T03:04:01.107Z,1014.36
2017-07-06T03:05:11.056Z,1014.34
2017-07-06T03:06:21.257Z,1014.37
2017-07-06T03:07:31.536Z,1014.39
2017-07-06T03:08:41.490Z,1014.39
2017-07-06T03:09:51.762Z,1014.38
2017-07-06T03:11:02.039Z,1014.43
2017-07-06T03:12:12.231Z,1014.43
2017-07-06T03:13:21.856Z,1014.39
2017-07-06T03:14:31.800Z,1014.4
2017-07-06T03:15:42.074Z,1014.42
2017-07-06T03:16:52.339Z,1014.48
2017-07-06T03:18:02.225Z,1014.49
2017-07-06T03:19:12.491Z,1014.48
2017-07-06T03:20:22.752Z,1014.48
2017-07-06T03:21:33.004Z,1014.47
2017-07-06T03:22:43.014Z,1014.48
2017-07-06T03:23:53.521Z,1014.49
2017-07-06T03:25:03.464Z,1014.45
2017-07-06T03:26:13.737Z,1014.47
2017-07-06T03:27:24.006Z,1014.46
2017-07-06T03:28:34.284Z,1014.42
2017-07-06T03:29:44.803Z,1014.4
2017-07-06T03:30:54.743Z,1014.45
2017-07-06T03:32:05.014Z,1014.41
2017-07-06T03:33:14.972Z,1014.42
2017-07-06T03:34:25.250Z,1014.43
2017-07-06T03:35:35.771Z,1014.43
2017-07-06T03:36:45.705Z,1014.44
2017-07-06T03:37:55.657Z,1014.43
2017-07-06T03:39:05.927Z,1014.41
2017-07-06T03:40:16.190Z,1014.43
2017-07-06T03:41:26.728Z,1014.42
2017-07-06T03:42:36.998Z,1014.46
2017-07-06T03:43:46.954Z,1014.46
2017-07-06T03:44:56.917Z,1014.45
2017-07-06T03:46:06.543Z,1014.47
2017-07-06T03:47:16.441Z,1014.45
2017-07-06T03:48:26.701Z,1014.46
2017-07-06T03:49:36.654Z,1014.46
2017-07-06T03:50:46.914Z,1014.45
2017-07-06T03:51:56.548Z,1014.42
2017-07-06T03:53:06.809Z,1014.48
2017-07-06T03:54:17.057Z,1014.45
2017-07-06T03:55:26.369Z,1014.47
2017-07-06T03:56:36.302Z,1014.46
2017-07-06T03:57:46.251Z,1014.45
2017-07-06T03:58:56.763Z,1014.46
2017-07-06T04:00:06.723Z,1014.44
2017-07-06T04:01:17.005Z,1014.42
2017-07-06T04:02:26.958Z,1014.44
2017-07-06T04:03:37.217Z,1014.47
2017-07-06T04:04:47.417Z,1014.46
2017-07-06T04:05:57.049Z,1014.46
2017-07-06T04:07:06.688Z,1014.47
2017-07-06T04:08:16.325Z,1014.47
2017-07-06T04:09:26.271Z,1014.48
2017-07-06T04:10:36.788Z,1014.48
2017-07-06T04:11:47.070Z,1014.47
2017-07-06T04:12:57.023Z,1014.5
2017-07-06T04:14:06.974Z,1014.49
2017-07-06T04:15:16.919Z,1014.52
2017-07-06T04:16:27.432Z,1014.52
2017-07-06T04:17:37.406Z,1014.53
2017-07-06T04:18:47.374Z,1014.52
2017-07-06T04:19:57.008Z,1014.52
2017-07-06T04:21:07.272Z,1014.57
2017-07-06T04:22:17.506Z,1014.59
2017-07-06T04:23:27.767Z,1014.62
2017-07-06T04:24:37.716Z,1014.67
2017-07-06T04:25:47.038Z,1014.62
2017-07-06T04:26:57.318Z,1014.59
2017-07-06T04:28:07.543Z,1014.59
2017-07-06T04:29:17.176Z,1014.62
2017-07-06T04:30:27.441Z,1014.57
2017-07-06T04:31:37.390Z,1014.57
2017-07-06T04:32:47.342Z,1014.56
2017-07-06T04:33:57.860Z,1014.6
2017-07-06T04:35:08.124Z,1014.62
2017-07-06T04:36:18.394Z,1014.64
2017-07-06T04:37:28.361Z,1014.69
2017-07-06T04:38:38.618Z,1014.7
2017-07-06T04:39:48.822Z,1014.75
2017-07-06T04:40:59.078Z,1014.75
2017-07-06T04:42:09.044Z,1014.81
2017-07-06T04:43:19.304Z,1014.78
2017-07-06T04:44:28.937Z,1014.77
2017-07-06T04:45:38.837Z,1014.79
2017-07-06T04:46:48.466Z,1014.78
2017-07-06T04:47:58.714Z,1014.79
2017-07-06T04:49:08.979Z,1014.82
2017-07-06T04:50:18.677Z,1014.82
2017-07-06T04:51:29.703Z,1014.83
2017-07-06T04:52:39.976Z,1014.88
2017-07-06T04:53:49.916Z,1014.86
2017-07-06T04:54:59.856Z,1014.87
2017-07-06T04:56:09.792Z,1014.81
2017-07-06T04:57:20.048Z,1014.82
2017-07-06T04:58:29.670Z,1014.85
2017-07-06T04:59:39.626Z,1014.86
2017-07-06T05:00:49.897Z,1014.83
2017-07-06T05:01:59.837Z,1014.82
2017-07-06T05:03:10.029Z,1014.82
2017-07-06T05:04:20.296Z,1014.85
2017-07-06T05:05:30.561Z,1014.89
2017-07-06T05:06:40.200Z,1014.89
2017-07-06T05:07:50.473Z,1014.85
2017-07-06T05:09:00.990Z,1014.87
2017-07-06T05:10:10.321Z,1014.82
2017-07-06T05:11:20.594Z,1014.85
2017-07-06T05:12:30.887Z,1014.87
2017-07-06T05:13:41.166Z,1014.84
2017-07-06T05:14:51.686Z,1014.84
2017-07-06T05:16:01.969Z,1014.83
2017-07-06T05:17:11.610Z,1014.83
2017-07-06T05:18:21.565Z,1014.82
2017-07-06T05:19:31.227Z,1014.88
2017-07-06T05:20:41.127Z,1014.92
2017-07-06T05:21:50.770Z,1014.89
2017-07-06T05:23:01.022Z,1014.87
2017-07-06T05:24:10.960Z,1014.92
2017-07-06T05:25:20.892Z,1014.93
2017-07-06T05:26:31.101Z,1014.94
2017-07-06T05:27:41.371Z,1014.95
2017-07-06T05:28:51.329Z,1014.93
2017-07-06T05:30:01.289Z,1014.94
2017-07-06T05:31:10.941Z,1014.93
2017-07-06T05:32:21.145Z,1014.9
2017-07-06T05:33:31.104Z,1014.92
2017-07-06T05:34:41.365Z,1014.93
2017-07-06T05:35:50.991Z,1014.95
2017-07-06T05:37:00.966Z,1014.91
2017-07-06T05:38:11.173Z,1014.89
2017-07-06T05:39:21.127Z,1014.89
2017-07-06T05:40:31.084Z,1014.91
2017-07-06T05:41:41.026Z,1014.88
2017-07-06T05:42:50.972Z,1014.89
2017-07-06T05:44:01.501Z,1014.9
2017-07-06T05:45:11.781Z,1014.83
2017-07-06T05:46:21.736Z,1014.88
2017-07-06T05:47:31.373Z,1014.93
2017-07-06T05:48:41.632Z,1014.9
2017-07-06T05:49:51.513Z,1014.9
2017-07-06T05:51:01.475Z,1014.94
2017-07-06T05:52:11.746Z,1014.95
2017-07-06T05:53:21.729Z,1014.97
2017-07-06T05:54:32.076Z,1015
2017-07-06T05:55:42.598Z,1014.99
2017-07-06T05:56:52.562Z,1014.96
2017-07-06T05:58:02.517Z,1015.01
2017-07-06T05:59:12.490Z,1015.01
2017-07-06T06:00:22.483Z,1015.04
2017-07-06T06:01:33.245Z,1015.02
2017-07-06T06:02:43.534Z,1015.04
2017-07-06T06:03:53.828Z,1015.03
2017-07-06T06:05:04.113Z,1015.05
2017-07-06T06:06:14.397Z,1015.03
2017-07-06T06:07:24.310Z,1015.05
2017-07-06T06:08:34.577Z,1015.07
2017-07-06T06:09:44.562Z,1015.06
2017-07-06T06:10:54.833Z,1015.08
2017-07-06T06:12:04.797Z,1015.07
2017-07-06T06:13:15.310Z,1015.09
2017-07-06T06:14:25.270Z,1015.05
2017-07-06T06:15:35.556Z,1015.06
2017-07-06T06:16:45.848Z,1015.03
2017-07-06T06:17:56.141Z,1015.09
2017-07-06T06:19:06.365Z,1015.11
2017-07-06T06:20:16.352Z,1015.13
2017-07-06T06:21:26.622Z,1015.14
2017-07-06T06:22:36.937Z,1015.13
2017-07-06T06:23:47.196Z,1015.08
2017-07-06T06:24:57.404Z,1015.11
2017-07-06T06:26:07.670Z,1015.14
2017-07-06T06:27:17.969Z,1015.12
2017-07-06T06:28:27.959Z,1015.12
2017-07-06T06:29:37.927Z,1015.08
2017-07-06T06:30:48.137Z,1015.11
2017-07-06T06:31:58.422Z,1015.07
2017-07-06T06:33:08.705Z,1015.1
2017-07-06T06:34:18.694Z,1015.11
2017-07-06T06:35:28.979Z,1015.15
2017-07-06T06:36:39.524Z,1015.17
2017-07-06T06:37:49.492Z,1015.17
2017-07-06T06:38:59.764Z,1015.13
2017-07-06T06:40:10.082Z,1015.12
2017-07-06T06:41:20.050Z,1015.17
2017-07-06T06:42:30.316Z,1015.16
2017-07-06T06:43:40.296Z,1015.15
2017-07-06T06:44:49.953Z,1015.2
2017-07-06T06:46:00.203Z,1015.21
2017-07-06T06:47:10.475Z,1015.23
2017-07-06T06:48:21.278Z,1015.24
2017-07-06T06:49:31.569Z,1015.28
2017-07-06T06:50:41.542Z,1015.24
2017-07-06T06:51:51.819Z,1015.21
2017-07-06T06:53:01.476Z,1015.23
2017-07-06T06:54:11.723Z,1015.24
2017-07-06T06:55:21.996Z,1015.26
2017-07-06T06:56:32.457Z,1015.27
2017-07-06T06:57:42.413Z,1015.23
2017-07-06T06:58:52.376Z,1015.2
2017-07-06T07:00:02.578Z,1015.23
2017-07-06T07:01:12.848Z,1015.24
2017-07-06T07:02:22.805Z,1015.25
2017-07-06T07:03:33.086Z,1015.27
2017-07-06T07:04:42.769Z,1015.28
2017-07-06T07:05:53.352Z,1015.27
2017-07-06T07:07:03.632Z,1015.32
2017-07-06T07:08:13.604Z,1015.34
2017-07-06T07:09:23.913Z,1015.35
2017-07-06T07:10:34.204Z,1015.37
2017-07-06T07:11:44.781Z,1015.37
2017-07-06T07:12:55.083Z,1015.37
2017-07-06T07:14:05.387Z,1015.41
2017-07-06T07:15:15.674Z,1015.4
2017-07-06T07:16:25.638Z,1015.37
2017-07-06T07:17:35.534Z,1015.4
2017-07-06T07:18:45.817Z,1015.41
2017-07-06T07:19:55.778Z,1015.4
2017-07-06T07:21:06.061Z,1015.44
2017-07-06T07:22:16.350Z,1015.47
2017-07-06T07:23:26.873Z,1015.45
2017-07-06T07:24:36.823Z,1015.46
2017-07-06T07:25:46.783Z,1015.49
2017-07-06T07:26:56.760Z,1015.52
2017-07-06T07:28:06.735Z,1015.52
2017-07-06T07:29:16.961Z,1015.49
2017-07-06T07:30:27.257Z,1015.45
2017-07-06T07:31:37.526Z,1015.49
2017-07-06T07:32:47.490Z,1015.46
2017-07-06T07:33:57.435Z,1015.45
2017-07-06T07:35:07.638Z,1015.42
2017-07-06T07:36:17.283Z,1015.47
2017-07-06T07:37:27.243Z,1015.48
2017-07-06T07:38:37.209Z,1015.43
2017-07-06T07:39:47.499Z,1015.47
2017-07-06T07:40:57.771Z,1015.5
2017-07-06T07:42:07.742Z,1015.53
2017-07-06T07:43:18.048Z,1015.54
2017-07-06T07:44:28.328Z,1015.51
2017-07-06T07:45:38.637Z,1015.52
2017-07-06T07:46:49.206Z,1015.53
2017-07-06T07:47:59.532Z,1015.54
2017-07-06T07:49:09.497Z,1015.55
2017-07-06T07:50:19.780Z,1015.52
2017-07-06T07:51:30.075Z,1015.53
2017-07-06T07:52:40.284Z,1015.55
2017-07-06T07:53:49.610Z,1015.53
2017-07-06T07:54:59.905Z,1015.59
2017-07-06T07:56:10.188Z,1015.61
2017-07-06T07:57:20.138Z,1015.62
2017-07-06T07:58:30.017Z,1015.59
2017-07-06T07:59:40.292Z,1015.63
2017-07-06T08:00:50.581Z,1015.57
2017-07-06T08:02:00.235Z,1015.61
2017-07-06T08:03:10.509Z,1015.62
2017-07-06T08:04:20.915Z,1015.58
2017-07-06T08:05:31.113Z,1015.55
2017-07-06T08:06:41.138Z,1015.59
2017-07-06T08:07:51.421Z,1015.58
2017-07-06T08:09:01.366Z,1015.58
2017-07-06T08:10:11.907Z,1015.57
2017-07-06T08:11:21.936Z,1015.56
2017-07-06T08:12:31.586Z,1015.56
2017-07-06T08:13:41.543Z,1015.55
2017-07-06T08:14:51.517Z,1015.54
2017-07-06T08:16:02.042Z,1015.59
2017-07-06T08:17:12.021Z,1015.58
2017-07-06T08:18:22.322Z,1015.6
2017-07-06T08:19:32.597Z,1015.57
2017-07-06T08:20:42.864Z,1015.59
2017-07-06T08:21:53.430Z,1015.55
2017-07-06T08:23:03.435Z,1015.6
2017-07-06T08:24:13.386Z,1015.58
2017-07-06T08:25:23.926Z,1015.61
2017-07-06T08:26:33.892Z,1015.58
2017-07-06T08:27:43.461Z,1015.56
2017-07-06T08:28:53.754Z,1015.54
2017-07-06T08:30:04.042Z,1015.57
2017-07-06T08:31:13.994Z,1015.58
2017-07-06T08:32:24.286Z,1015.57
2017-07-06T08:33:34.554Z,1015.56
2017-07-06T08:34:44.881Z,1015.58
2017-07-06T08:35:55.363Z,1015.51
2017-07-06T08:37:05.967Z,1015.54
2017-07-06T08:38:15.924Z,1015.55
2017-07-06T08:39:26.440Z,1015.55
2017-07-06T08:40:36.435Z,1015.52
2017-07-06T08:41:46.397Z,1015.56
2017-07-06T08:42:56.690Z,1015.53
2017-07-06T08:44:06.685Z,1015.51
2017-07-06T08:45:16.896Z,1015.51
2017-07-06T08:46:26.865Z,1015.54
2017-07-06T08:47:37.061Z,1015.55
2017-07-06T08:48:47.369Z,1015.56
2017-07-06T08:49:57.671Z,1015.52
2017-07-06T08:51:08.197Z,1015.54
2017-07-06T08:52:18.503Z,1015.54
2017-07-06T08:53:28.775Z,1015.56
2017-07-06T08:54:38.753Z,1015.58
2017-07-06T08:55:48.696Z,1015.6
2017-07-06T08:56:59.262Z,1015.56
2017-07-06T08:58:08.916Z,1015.59
2017-07-06T08:59:18.559Z,1015.58
2017-07-06T09:00:28.564Z,1015.59
2017-07-06T09:01:38.864Z,1015.56
2017-07-06T09:02:49.159Z,1015.52
2017-07-06T09:03:59.451Z,1015.52
2017-07-06T09:05:09.720Z,1015.57
2017-07-06T09:06:19.683Z,1015.55
2017-07-06T09:07:29.975Z,1015.57
2017-07-06T09:08:40.519Z,1015.58
2017-07-06T09:09:50.491Z,1015.54
2017-07-06T09:11:00.462Z,1015.56
2017-07-06T09:12:10.443Z,1015.56
2017-07-06T09:13:20.122Z,1015.57
2017-07-06T09:14:30.348Z,1015.58
2017-07-06T09:15:40.344Z,1015.6
2017-07-06T09:16:50.305Z,1015.55
2017-07-06T09:18:00.611Z,1015.51
2017-07-06T09:19:10.880Z,1015.49
2017-07-06T09:20:21.088Z,1015.53
2017-07-06T09:21:31.053Z,1015.49
2017-07-06T09:22:41.021Z,1015.55
2017-07-06T09:23:50.667Z,1015.59
2017-07-06T09:25:00.946Z,1015.53
2017-07-06T09:26:11.195Z,1015.57
2017-07-06T09:27:20.845Z,1015.57
2017-07-06T09:28:30.496Z,1015.57
2017-07-06T09:29:40.143Z,1015.54
2017-07-06T09:30:50.109Z,1015.5
2017-07-06T09:32:00.321Z,1015.54
2017-07-06T09:33:10.628Z,1015.48
2017-07-06T09:34:21.167Z,1015.51
2017-07-06T09:35:31.472Z,1015.51
2017-07-06T09:36:41.430Z,1015.57
2017-07-06T09:37:51.963Z,1015.51
2017-07-06T09:39:01.954Z,1015.51
2017-07-06T09:40:11.934Z,1015.48
2017-07-06T09:41:22.214Z,1015.44
2017-07-06T09:42:32.196Z,1015.43
2017-07-06T09:43:42.428Z,1015.49
2017-07-06T09:44:52.730Z,1015.46
2017-07-06T09:46:02.700Z,1015.49
2017-07-06T09:47:13.003Z,1015.5
2017-07-06T09:48:23.295Z,1015.47
2017-07-06T09:49:33.847Z,1015.48
2017-07-06T09:50:44.147Z,1015.45
2017-07-06T09:51:54.456Z,1015.37
2017-07-06T09:53:04.414Z,1015.44
2017-07-06T09:54:14.701Z,1015.46
2017-07-06T09:55:25.268Z,1015.47
2017-07-06T09:56:35.558Z,1015.46
2017-07-06T09:57:45.550Z,1015.47
2017-07-06T09:58:55.530Z,1015.46
2017-07-06T10:00:04.862Z,1015.33
2017-07-06T10:01:15.079Z,1015.33
2017-07-06T10:02:24.784Z,1015.34
2017-07-06T10:03:35.094Z,1015.29
2017-07-06T10:04:44.750Z,1015.26
2017-07-06T10:05:54.729Z,1015.22
2017-07-06T10:07:05.259Z,1015.27
2017-07-06T10:08:14.931Z,1015.34
2017-07-06T10:09:24.908Z,1015.3
2017-07-06T10:10:34.591Z,1015.32
2017-07-06T10:11:44.579Z,1015.34
2017-07-06T10:12:54.493Z,1015.32
2017-07-06T10:14:04.461Z,1015.31
2017-07-06T10:15:14.124Z,1015.33
2017-07-06T10:16:23.874Z,1015.3
2017-07-06T10:17:34.210Z,1015.32
2017-07-06T10:18:44.128Z,1015.28
2017-07-06T10:19:54.446Z,1015.34
2017-07-06T10:21:04.763Z,1015.34
2017-07-06T10:22:15.044Z,1015.28
2017-07-06T10:23:25.334Z,1015.31
2017-07-06T10:24:35.863Z,1015.29
2017-07-06T10:25:46.036Z,1015.26
2017-07-06T10:26:55.710Z,1015.35
2017-07-06T10:28:05.660Z,1015.31
2017-07-06T10:29:15.621Z,1015.34
2017-07-06T10:30:26.234Z,1015.34
2017-07-06T10:31:35.884Z,1015.31
2017-07-06T10:32:46.155Z,1015.25
2017-07-06T10:33:56.435Z,1015.29
2017-07-06T10:35:06.102Z,1015.25
2017-07-06T10:36:16.666Z,1015.18
2017-07-06T10:37:26.958Z,1015.31
2017-07-06T10:38:36.937Z,1015.27
2017-07-06T10:39:46.922Z,1015.24
2017-07-06T10:40:56.591Z,1015.24
2017-07-06T10:42:07.143Z,1015.27
2017-07-06T10:43:17.427Z,1015.24
2017-07-06T10:44:27.408Z,1015.23
2017-07-06T10:45:37.381Z,1015.25
2017-07-06T10:46:47.687Z,1015.26
2017-07-06T10:47:57.967Z,1015.23
2017-07-06T10:49:07.927Z,1015.25
2017-07-06T10:50:18.207Z,1015.22
2017-07-06T10:51:28.205Z,1015.33
2017-07-06T10:52:38.531Z,1015.26
2017-07-06T10:53:49.080Z,1015.24
2017-07-06T10:54:59.404Z,1015.24
2017-07-06T10:56:09.709Z,1015.33
2017-07-06T10:57:20.034Z,1015.3
2017-07-06T10:58:30.302Z,1015.26
2017-07-06T10:59:40.540Z,1015.25
2017-07-06T11:00:50.524Z,1015.19
2017-07-06T11:01:59.876Z,1015.27
2017-07-06T11:03:09.848Z,1015.29
2017-07-06T11:04:19.835Z,1015.25
2017-07-06T11:05:30.171Z,1015.25
2017-07-06T11:06:40.468Z,1015.23
2017-07-06T11:07:50.785Z,1015.18
2017-07-06T11:09:00.776Z,1015.22
2017-07-06T11:10:11.068Z,1015.23
2017-07-06T11:11:21.310Z,1015.17
2017-07-06T11:12:31.584Z,1015.13
2017-07-06T11:13:41.859Z,1015.14
2017-07-06T11:14:51.505Z,1015.17
2017-07-06T11:16:01.484Z,1015.16
2017-07-06T11:17:11.693Z,1015.15
2017-07-06T11:18:22.009Z,1015.18
2017-07-06T11:19:31.975Z,1015.15
2017-07-06T11:20:42.265Z,1015.26
2017-07-06T11:21:52.543Z,1015.17
2017-07-06T11:23:03.080Z,1015.2
2017-07-06T11:24:12.717Z,1015.22
2017-07-06T11:25:22.384Z,1015.1
2017-07-06T11:26:32.053Z,1015.17
2017-07-06T11:27:42.031Z,1015.1
2017-07-06T11:28:52.605Z,1015.08
2017-07-06T11:30:02.875Z,1015.11
2017-07-06T11:31:12.542Z,1015.07
2017-07-06T11:32:22.815Z,1015.11
2017-07-06T11:33:33.082Z,1015.05
2017-07-06T11:34:43.640Z,1015.02
2017-07-06T11:35:53.603Z,1015.03
2017-07-06T11:37:03.565Z,1015.06
2017-07-06T11:38:13.531Z,1015.01
2017-07-06T11:39:23.838Z,1015
2017-07-06T11:40:34.390Z,1015.02
2017-07-06T11:41:44.702Z,1015.06
2017-07-06T11:42:54.983Z,1015.05
2017-07-06T11:44:05.269Z,1014.97
2017-07-06T11:45:15.258Z,1014.96
2017-07-06T11:46:25.800Z,1014.94
2017-07-06T11:47:36.106Z,1014.9
2017-07-06T11:48:46.059Z,1014.92
2017-07-06T11:49:55.703Z,1014.91
2017-07-06T11:51:05.745Z,1014.88
2017-07-06T11:52:15.585Z,1014.9
2017-07-06T11:53:25.479Z,1015.02
2017-07-06T11:54:35.452Z,1014.89
2017-07-06T11:55:45.742Z,1014.92
2017-07-06T11:56:56.032Z,1014.93
2017-07-06T11:58:06.566Z,1014.91
2017-07-06T11:59:16.550Z,1014.9
2017-07-06T12:00:26.840Z,1014.86
2017-07-06T12:01:36.816Z,1014.86
2017-07-06T12:02:46.507Z,1014.87
2017-07-06T12:03:57.111Z,1014.84
2017-07-06T12:05:06.787Z,1014.91
2017-07-06T12:06:16.791Z,1014.83
2017-07-06T12:07:27.064Z,1014.94
2017-07-06T12:08:37.076Z,1014.92
2017-07-06T12:09:47.297Z,1014.95
2017-07-06T12:10:57.589Z,1014.89
2017-07-06T12:12:07.849Z,1014.94
2017-07-06T12:13:17.848Z,1014.81
2017-07-06T12:14:27.805Z,1014.8
2017-07-06T12:15:38.030Z,1014.82
2017-07-06T12:16:48.012Z,1014.75
2017-07-06T12:17:57.669Z,1014.77
2017-07-06T12:19:07.653Z,1014.85
2017-07-06T12:20:17.960Z,1014.84
2017-07-06T12:21:28.546Z,1014.84
2017-07-06T12:22:38.822Z,1014.81
2017-07-06T12:23:49.118Z,1014.8
2017-07-06T12:24:59.403Z,1014.78
2017-07-06T12:26:09.690Z,1014.77
2017-07-06T12:27:19.641Z,1014.76
2017-07-06T12:28:29.628Z,1014.74
2017-07-06T12:29:39.944Z,1014.74
2017-07-06T12:30:49.898Z,1014.72
2017-07-06T12:32:00.195Z,1014.67
2017-07-06T12:33:10.789Z,1014.73
2017-07-06T12:34:21.066Z,1014.69
2017-07-06T12:35:31.348Z,1014.68
2017-07-06T12:36:41.661Z,1014.78
2017-07-06T12:37:51.622Z,1014.71
2017-07-06T12:39:01.852Z,1014.71
2017-07-06T12:40:12.148Z,1014.64
2017-07-06T12:41:22.452Z,1014.65
2017-07-06T12:42:32.433Z,1014.67
2017-07-06T12:43:42.397Z,1014.64
2017-07-06T12:44:52.608Z,1014.66
2017-07-06T12:46:02.888Z,1014.6
2017-07-06T12:47:13.164Z,1014.66
2017-07-06T12:48:22.828Z,1014.7
2017-07-06T12:49:33.122Z,1014.69
2017-07-06T12:50:43.696Z,1014.66
2017-07-06T12:51:53.684Z,1014.65
2017-07-06T12:53:03.334Z,1014.67
2017-07-06T12:54:13.605Z,1014.69
2017-07-06T12:55:23.933Z,1014.69
2017-07-06T12:56:34.489Z,1014.68
2017-07-06T12:57:44.798Z,1014.7
2017-07-06T12:58:55.110Z,1014.65
2017-07-06T13:00:05.144Z,1014.67
2017-07-06T13:01:14.806Z,1014.62
2017-07-06T13:02:25.393Z,1014.58
2017-07-06T13:03:35.700Z,1014.58
2017-07-06T13:04:46.095Z,1014.54
2017-07-06T13:05:56.269Z,1014.51
2017-07-06T13:07:06.246Z,1014.53
2017-07-06T13:08:16.786Z,1014.54
2017-07-06T13:09:27.077Z,1014.59
2017-07-06T13:10:37.370Z,1014.56
2017-07-06T13:11:47.717Z,1014.54
2017-07-06T13:12:57.706Z,1014.5
2017-07-06T13:14:07.959Z,1014.51
2017-07-06T13:15:18.260Z,1014.5
2017-07-06T13:16:28.557Z,1014.53
2017-07-06T13:17:38.513Z,1014.52
2017-07-06T13:18:48.514Z,1014.54
2017-07-06T13:19:59.055Z,1014.59
2017-07-06T13:21:09.349Z,1014.54
2017-07-06T13:22:19.649Z,1014.53
2017-07-06T13:23:29.926Z,1014.58
2017-07-06T13:24:39.893Z,1014.57
2017-07-06T13:25:50.436Z,1014.49
2017-07-06T13:27:00.727Z,1014.46
2017-07-06T13:28:10.688Z,1014.46
2017-07-06T13:29:20.975Z,1014.5
2017-07-06T13:30:31.280Z,1014.57
2017-07-06T13:31:41.804Z,1014.49
2017-07-06T13:32:51.772Z,1014.53
2017-07-06T13:34:02.102Z,1014.58
2017-07-06T13:35:11.773Z,1014.55
2017-07-06T13:36:22.113Z,1014.52
2017-07-06T13:37:32.666Z,1014.44
2017-07-06T13:38:42.620Z,1014.42
2017-07-06T13:39:52.298Z,1014.41
2017-07-06T13:41:02.578Z,1014.43
2017-07-06T13:42:12.851Z,1014.42
2017-07-06T13:43:23.473Z,1014.39
2017-07-06T13:44:33.462Z,1014.38
2017-07-06T13:45:43.774Z,1014.42
2017-07-06T13:46:53.778Z,1014.39
2017-07-06T13:48:04.087Z,1014.42
2017-07-06T13:49:14.619Z,1014.41
2017-07-06T13:50:24.638Z,1014.38
2017-07-06T13:51:34.611Z,1014.41
2017-07-06T13:52:44.918Z,1014.34
2017-07-06T13:53:55.247Z,1014.29
2017-07-06T13:55:04.898Z,1014.24
2017-07-06T13:56:15.188Z,1014.23
2017-07-06T13:57:25.510Z,1014.24
2017-07-06T13:58:35.496Z,1014.26
2017-07-06T13:59:45.794Z,1014.35
2017-07-06T14:00:56.316Z,1014.32
2017-07-06T14:02:06.594Z,1014.29
2017-07-06T14:03:16.896Z,1014.28
2017-07-06T14:04:27.185Z,1014.24
2017-07-06T14:05:37.462Z,1014.21
2017-07-06T14:06:48.039Z,1014.22
2017-07-06T14:07:58.345Z,1014.17
2017-07-06T14:09:08.626Z,1014.18
2017-07-06T14:10:18.936Z,1014.17